Time;durP1;ratioP1;P1;durP2;ratioP2;P2;SDS_P1;SDS_P2;PMS_P1;PMS_P2;Temp;Humidity;BMP_temperature;BMP_pressure;BME280_temperature;BME280_humidity;BME280_pressure;Samples;Min_cycle;Max_cycle;Signal;HPM_P1;HPM_P2
2022/06/08 00:00:22;;;;;;;3.78;1.30;;;13.20;85.60;;;;;;5052544;28;20053;-76
2022/06/08 00:02:54;;;;;;;2.83;1.42;;;13.20;85.60;;;;;;5052538;28;20057;-76
2022/06/08 00:05:20;;;;;;;3.35;1.33;;;13.20;85.40;;;;;;5053962;28;20053;-76
2022/06/08 00:07:45;;;;;;;4.57;1.60;;;13.20;85.20;;;;;;5056668;28;20059;-76
2022/06/08 00:10:11;;;;;;;5.72;1.48;;;13.20;85.20;;;;;;5055238;28;20021;-75
2022/06/08 00:12:37;;;;;;;2.33;1.50;;;13.20;85.00;;;;;;5056546;28;20032;-76
2022/06/08 00:15:06;;;;;;;3.63;1.60;;;13.20;84.90;;;;;;5056476;28;20021;-75
2022/06/08 00:17:31;;;;;;;5.53;1.52;;;13.20;84.80;;;;;;5056258;28;20037;-75
2022/06/08 00:19:57;;;;;;;6.80;1.63;;;13.20;84.80;;;;;;5056493;28;20079;-75
2022/06/08 00:22:22;;;;;;;7.05;1.88;;;13.20;84.70;;;;;;5056356;28;20053;-76
2022/06/08 00:24:48;;;;;;;5.10;2.22;;;13.10;84.70;;;;;;5055126;28;20029;-75
2022/06/08 00:27:13;;;;;;;3.40;1.63;;;13.10;84.60;;;;;;5056411;28;20025;-75
2022/06/08 00:29:39;;;;;;;5.13;1.48;;;13.00;84.70;;;;;;5056225;28;20032;-75
2022/06/08 00:32:05;;;;;;;7.82;1.90;;;13.00;84.60;;;;;;5056131;28;20036;-76
2022/06/08 00:34:30;;;;;;;4.32;1.60;;;12.90;85.00;;;;;;5056215;28;20017;-75
2022/06/08 00:36:56;;;;;;;1.80;1.30;;;12.90;84.90;;;;;;5056112;28;20037;-75
2022/06/08 00:39:21;;;;;;;4.53;1.40;;;12.80;85.20;;;;;;5056003;28;20025;-76
2022/06/08 00:41:52;;;;;;;5.57;1.90;;;12.80;85.10;;;;;;5054745;28;20028;-75
2022/06/08 00:44:25;;;;;;;3.00;1.40;;;12.80;85.20;;;;;;5056083;28;20381;-75
2022/06/08 00:46:52;;;;;;;3.80;1.63;;;12.80;85.20;;;;;;5055832;28;20079;-75
2022/06/08 00:49:41;;;;;;;2.80;1.63;;;12.80;85.00;;;;;;5055772;28;20618;-75
2022/06/08 00:52:07;;;;;;;5.38;1.50;;;12.80;84.90;;;;;;5055474;28;20037;-77
2022/06/08 00:54:37;;;;;;;2.40;1.55;;;12.70;84.90;;;;;;5055785;28;20028;-77
2022/06/08 00:57:15;;;;;;;2.03;1.30;;;12.70;85.10;;;;;;5055700;28;20481;-77
2022/06/08 00:59:48;;;;;;;4.13;1.42;;;12.60;84.80;;;;;;5055631;28;20035;-77
2022/06/08 01:02:14;;;;;;;6.07;1.95;;;12.60;84.90;;;;;;5055668;28;20039;-77
2022/06/08 01:04:40;;;;;;;8.57;1.70;;;12.50;85.30;;;;;;5055594;28;20048;-78
2022/06/08 01:07:05;;;;;;;3.20;1.77;;;12.50;85.50;;;;;;5055574;28;20033;-76
2022/06/08 01:09:39;;;;;;;5.97;1.38;;;12.50;85.60;;;;;;5055508;28;20060;-74
2022/06/08 01:12:12;;;;;;;6.38;1.50;;;12.60;85.40;;;;;;5055441;28;20037;-77
2022/06/08 01:14:38;;;;;;;3.35;1.60;;;12.50;85.00;;;;;;5055393;28;20445;-75
2022/06/08 01:17:13;;;;;;;4.15;1.73;;;12.50;84.90;;;;;;5054521;28;20029;-74
2022/06/08 01:19:41;;;;;;;6.00;1.95;;;12.50;84.50;;;;;;5055422;28;20021;-75
2022/06/08 01:22:09;;;;;;;7.15;1.88;;;12.40;84.90;;;;;;5055288;28;20075;-76
2022/06/08 01:24:35;;;;;;;6.85;2.10;;;12.30;85.10;;;;;;5054006;28;20500;-77
2022/06/08 01:27:38;;;;;;;3.20;1.35;;;12.30;85.10;;;;;;5055314;28;20021;-77
2022/06/08 01:30:31;;;;;;;4.90;2.00;;;12.30;85.20;;;;;;5055000;28;20024;-76
2022/06/08 01:33:38;;;;;;;5.53;1.63;;;12.30;85.20;;;;;;5055106;28;20029;-78
2022/06/08 01:36:06;;;;;;;;;;;12.20;85.10;;;;;;5049790;28;20092;-76
2022/06/08 01:38:52;;;;;;;7.15;1.60;;;12.20;85.40;;;;;;5054996;28;20280;-78
2022/06/08 01:41:30;;;;;;;3.63;0.88;;;12.20;85.50;;;;;;5054998;28;20104;-76
2022/06/08 01:44:24;;;;;;;6.32;1.50;;;12.00;85.60;;;;;;5055098;28;20049;-76
2022/06/08 01:47:15;;;;;;;5.20;1.50;;;12.10;85.50;;;;;;5054960;28;20033;-75
2022/06/08 01:50:07;;;;;;;6.63;1.85;;;12.10;85.20;;;;;;5053375;28;20066;-75
2022/06/08 01:52:40;;;;;;;6.63;1.52;;;12.00;85.40;;;;;;5036833;28;20025;-75
2022/06/08 01:55:10;;;;;;;3.40;1.83;;;11.90;86.40;;;;;;5054658;28;20024;-75
2022/06/08 01:58:14;;;;;;;5.47;1.80;;;11.90;85.70;;;;;;5053652;28;20029;-75
2022/06/08 02:00:46;;;;;;;6.35;1.63;;;11.90;85.70;;;;;;5054570;28;20385;-75
2022/06/08 02:03:16;;;;;;;9.70;1.80;;;11.80;85.90;;;;;;5054515;28;20018;-75
2022/06/08 02:05:45;;;;;;;2.55;1.88;;;11.80;85.90;;;;;;5054115;28;20017;-76
2022/06/08 02:08:35;;;;;;;4.85;1.70;;;11.80;86.00;;;;;;5054354;28;20051;-75
2022/06/08 02:11:04;;;;;;;8.70;2.08;;;11.80;85.90;;;;;;5054126;28;20040;-75
2022/06/08 02:13:47;;;;;;;8.57;1.95;;;11.80;85.70;;;;;;5054216;28;20041;-75
2022/06/08 02:16:32;;;;;;;5.10;2.03;;;11.80;85.90;;;;;;5054109;28;20017;-75
2022/06/08 02:19:06;;;;;;;4.38;1.48;;;11.70;86.10;;;;;;5054154;28;20014;-75
2022/06/08 02:21:49;;;;;;;4.32;1.75;;;11.80;85.90;;;;;;5054033;28;20535;-76
2022/06/08 02:24:21;;;;;;;2.97;1.80;;;11.70;85.90;;;;;;5054162;28;20029;-76
2022/06/08 02:26:57;;;;;;;4.10;1.75;;;11.70;85.70;;;;;;5054087;28;20055;-76
2022/06/08 02:29:36;;;;;;;4.80;1.45;;;11.80;85.30;;;;;;5053857;28;20021;-75
2022/06/08 02:35:14;;;;;;;7.65;1.70;;;11.70;85.40;;;;;;4999729;28;20526;-76
2022/06/08 02:37:43;;;;;;;5.20;1.73;;;11.70;85.90;;;;;;5053749;28;20033;-75
2022/06/08 02:40:30;;;;;;;6.97;1.83;;;11.60;85.60;;;;;;5053917;28;20031;-76
2022/06/08 02:43:00;;;;;;;5.88;1.80;;;11.60;85.70;;;;;;5053768;28;20025;-76
2022/06/08 02:45:30;;;;;;;4.75;1.70;;;11.60;85.50;;;;;;5053734;28;20390;-75
2022/06/08 02:48:03;;;;;;;5.25;1.63;;;11.60;85.60;;;;;;5053551;28;20091;-75
2022/06/08 02:50:29;;;;;;;2.97;1.88;;;11.50;85.60;;;;;;5053257;28;20057;-75
2022/06/08 02:53:28;;;;;;;5.07;1.70;;;11.50;85.70;;;;;;5053663;28;20106;-75
2022/06/08 02:56:18;;;;;;;3.63;2.00;;;11.50;85.60;;;;;;5017844;28;20037;-75
2022/06/08 02:58:55;;;;;;;9.25;1.75;;;11.30;86.10;;;;;;5053409;28;20025;-75
2022/06/08 03:01:28;;;;;;;4.30;1.58;;;11.30;86.30;;;;;;5053437;28;20485;-75
2022/06/08 03:04:01;;;;;;;3.72;1.95;;;11.30;86.40;;;;;;5052356;28;20445;-75
2022/06/08 03:06:33;;;;;;;5.75;1.88;;;11.30;86.40;;;;;;5053149;28;20029;-75
2022/06/08 03:09:01;;;;;;;3.70;1.75;;;11.30;86.10;;;;;;5053503;28;20063;-75
2022/06/08 03:11:35;;;;;;;8.65;2.30;;;11.30;86.30;;;;;;5053139;28;20079;-75
2022/06/08 03:14:07;;;;;;;4.22;2.08;;;11.30;86.20;;;;;;5053354;28;20143;-75
2022/06/08 03:16:41;;;;;;;7.78;2.60;;;11.30;86.10;;;;;;5053234;28;20068;-75
2022/06/08 03:19:08;;;;;;;4.03;2.00;;;11.20;86.00;;;;;;5053282;28;20048;-75
2022/06/08 03:21:35;;;;;;;9.20;2.13;;;11.30;86.20;;;;;;5051810;28;20029;-75
2022/06/08 03:24:02;;;;;;;6.95;2.30;;;11.20;86.10;;;;;;5052906;28;20128;-75
2022/06/08 03:26:37;;;;;;;7.22;2.38;;;11.20;86.30;;;;;;5052802;28;20021;-75
2022/06/08 03:29:02;;;;;;;5.65;1.92;;;11.10;86.50;;;;;;5053124;28;20504;-76
2022/06/08 03:31:28;;;;;;;4.88;1.88;;;11.20;86.60;;;;;;5052874;28;20037;-75
2022/06/08 03:33:53;;;;;;;5.50;1.77;;;11.10;86.50;;;;;;5052959;28;20025;-75
2022/06/08 03:36:19;;;;;;;5.75;2.08;;;11.10;86.50;;;;;;5052685;28;20039;-75
2022/06/08 03:38:44;;;;;;;5.80;2.00;;;11.10;86.50;;;;;;5055464;28;20079;-75
2022/06/08 03:41:10;;;;;;;6.28;1.98;;;11.10;86.50;;;;;;5052906;28;20111;-75
2022/06/08 03:43:36;;;;;;;12.13;2.42;;;11.10;86.50;;;;;;5052913;28;20100;-76
2022/06/08 03:46:04;;;;;;;7.13;1.92;;;11.20;86.20;;;;;;5052704;28;20029;-76
2022/06/08 03:48:33;;;;;;;11.85;1.92;;;11.20;85.90;;;;;;5052358;28;20033;-75
2022/06/08 03:51:00;;;;;;;3.05;1.63;;;11.20;85.80;;;;;;5052637;28;20037;-75
2022/06/08 03:53:37;;;;;;;9.98;1.95;;;11.30;85.60;;;;;;5052773;28;20053;-75
2022/06/08 03:56:05;;;;;;;7.50;1.80;;;11.30;85.30;;;;;;5052657;28;20112;-75
2022/06/08 03:58:31;;;;;;;6.40;2.00;;;11.30;85.30;;;;;;5052837;28;20021;-75
2022/06/08 04:00:57;;;;;;;6.20;1.70;;;11.30;85.30;;;;;;5052487;28;20469;-75
2022/06/08 04:03:23;;;;;;;7.35;2.03;;;11.40;85.10;;;;;;5052399;28;20047;-74
2022/06/08 04:05:49;;;;;;;7.82;2.00;;;11.40;84.90;;;;;;5052597;28;20029;-76
2022/06/08 04:08:14;;;;;;;3.13;1.60;;;11.50;85.00;;;;;;5052707;28;20028;-77
2022/06/08 04:10:40;;;;;;;6.05;1.90;;;11.60;84.70;;;;;;5052466;28;20033;-75
2022/06/08 04:13:06;;;;;;;6.47;1.52;;;11.70;84.60;;;;;;5052361;28;20481;-75
2022/06/08 04:15:44;;;;;;;7.70;1.90;;;11.70;84.40;;;;;;5052346;28;20036;-75
2022/06/08 04:18:13;;;;;;;6.63;1.83;;;11.70;83.70;;;;;;5052342;28;20048;-74
2022/06/08 04:20:41;;;;;;;3.75;1.58;;;11.70;83.90;;;;;;5050878;28;20033;-75
2022/06/08 04:23:07;;;;;;;5.05;1.80;;;11.80;83.80;;;;;;5052267;28;20021;-75
2022/06/08 04:25:33;;;;;;;10.30;1.83;;;11.80;83.80;;;;;;5052390;28;20049;-75
2022/06/08 04:27:58;;;;;;;6.95;1.83;;;11.80;83.60;;;;;;5052401;28;20191;-74
2022/06/08 04:30:24;;;;;;;4.80;2.00;;;11.80;83.50;;;;;;5052209;28;20462;-74
2022/06/08 04:32:50;;;;;;;9.40;2.15;;;11.80;83.80;;;;;;5052347;28;20025;-74
2022/06/08 04:35:17;;;;;;;5.63;1.98;;;11.80;84.00;;;;;;5052196;28;20024;-74
2022/06/08 04:37:43;;;;;;;5.68;1.73;;;11.80;84.10;;;;;;5052369;28;20025;-74
2022/06/08 04:40:12;;;;;;;8.20;1.98;;;11.90;83.80;;;;;;5052215;28;20050;-74
2022/06/08 04:42:38;;;;;;;6.55;1.90;;;11.90;84.10;;;;;;5052249;28;20070;-74
2022/06/08 04:45:05;;;;;;;3.67;1.75;;;11.90;83.70;;;;;;5052126;28;20029;-74
2022/06/08 04:47:31;;;;;;;3.97;1.58;;;11.90;83.80;;;;;;5052265;28;20025;-74
2022/06/08 04:49:57;;;;;;;2.90;1.80;;;12.00;83.90;;;;;;5052223;28;20095;-74
2022/06/08 04:52:23;;;;;;;2.97;1.55;;;12.00;84.00;;;;;;5053445;28;20147;-74
2022/06/08 04:54:49;;;;;;;4.25;1.83;;;12.10;84.40;;;;;;5055771;28;20021;-75
2022/06/08 04:57:15;;;;;;;4.28;1.98;;;12.20;83.20;;;;;;5055708;28;20025;-75
2022/06/08 04:59:41;;;;;;;7.72;2.17;;;12.30;83.20;;;;;;5055591;28;20021;-74
2022/06/08 05:02:07;;;;;;;6.72;2.00;;;12.30;83.10;;;;;;5055985;28;20477;-75
2022/06/08 05:04:33;;;;;;;6.85;1.85;;;12.40;82.70;;;;;;5055685;28;20053;-76
2022/06/08 05:06:59;;;;;;;9.65;2.08;;;12.40;82.60;;;;;;5055687;28;20064;-76
2022/06/08 05:09:24;;;;;;;5.22;1.73;;;12.50;82.40;;;;;;5054043;28;20021;-76
2022/06/08 05:11:50;;;;;;;5.80;1.80;;;12.50;82.20;;;;;;5055380;28;20039;-76
2022/06/08 05:14:15;;;;;;;3.97;1.60;;;12.50;82.20;;;;;;5055473;28;20021;-75
2022/06/08 05:16:41;;;;;;;4.03;1.85;;;12.60;83.10;;;;;;5055447;28;20025;-76
2022/06/08 05:19:07;;;;;;;6.75;1.73;;;12.60;82.20;;;;;;5055337;28;20021;-76
2022/06/08 05:21:33;;;;;;;9.63;2.03;;;12.50;82.40;;;;;;5054879;28;20028;-75
2022/06/08 05:23:58;;;;;;;5.13;1.83;;;12.60;82.20;;;;;;5055036;28;20035;-75
2022/06/08 05:26:24;;;;;;;5.63;2.08;;;12.60;82.00;;;;;;5053765;28;20021;-77
2022/06/08 05:28:49;;;;;;;3.45;1.88;;;12.70;82.00;;;;;;5054946;28;20478;-77
2022/06/08 05:31:15;;;;;;;7.07;2.15;;;12.80;82.00;;;;;;5054959;28;20384;-76
2022/06/08 05:33:41;;;;;;;10.43;2.45;;;12.90;82.00;;;;;;5055041;28;20079;-77
2022/06/08 05:36:07;;;;;;;8.98;2.05;;;13.00;81.70;;;;;;5054974;28;20454;-76
2022/06/08 05:38:32;;;;;;;5.68;1.80;;;13.00;81.90;;;;;;5054861;28;20111;-76
2022/06/08 05:40:58;;;;;;;4.75;1.90;;;13.10;81.80;;;;;;5054932;28;20106;-76
2022/06/08 05:43:24;;;;;;;4.15;1.85;;;13.10;81.30;;;;;;5054691;28;20021;-77
2022/06/08 05:45:49;;;;;;;9.85;2.30;;;13.10;81.50;;;;;;5054443;28;20021;-78
2022/06/08 05:48:15;;;;;;;5.82;2.33;;;13.20;81.50;;;;;;5054732;28;20049;-77
2022/06/08 05:50:43;;;;;;;5.93;1.63;;;13.30;82.20;;;;;;5054290;28;20029;-77
2022/06/08 05:53:09;;;;;;;5.47;1.60;;;13.30;80.90;;;;;;5054404;28;20565;-77
2022/06/08 05:55:35;;;;;;;9.43;1.70;;;13.50;80.80;;;;;;5054433;28;20021;-75
2022/06/08 05:58:00;;;;;;;7.28;1.85;;;13.60;80.30;;;;;;5054278;28;20028;-76
2022/06/08 06:00:30;;;;;;;6.30;1.92;;;13.60;79.90;;;;;;5054445;28;20052;-75
2022/06/08 06:02:57;;;;;;;5.28;2.03;;;13.80;79.70;;;;;;5053966;28;20017;-75
2022/06/08 06:05:26;;;;;;;5.25;1.75;;;13.90;79.60;;;;;;5054180;28;20029;-75
2022/06/08 06:07:52;;;;;;;19.70;3.30;;;14.10;79.60;;;;;;5054340;28;20100;-73
2022/06/08 06:10:18;;;;;;;14.57;2.47;;;14.30;79.30;;;;;;5054203;28;20086;-73
2022/06/08 06:12:44;;;;;;;11.68;2.28;;;14.50;80.10;;;;;;5054176;28;20040;-73
2022/06/08 06:15:11;;;;;;;9.27;1.65;;;14.80;80.70;;;;;;5054233;28;20025;-74
2022/06/08 06:17:37;;;;;;;5.88;1.40;;;15.10;79.30;;;;;;5054106;28;20017;-73
2022/06/08 06:20:04;;;;;;;6.18;1.67;;;15.50;77.50;;;;;;5054121;28;20386;-73
2022/06/08 06:22:32;;;;;;;19.42;4.78;;;15.80;76.40;;;;;;5054046;28;20021;-73
2022/06/08 06:24:58;;;;;;;4.32;1.75;;;16.10;75.40;;;;;;5054194;28;20025;-73
2022/06/08 06:27:24;;;;;;;8.85;1.92;;;16.30;73.70;;;;;;5052744;28;20067;-73
2022/06/08 06:29:51;;;;;;;6.20;2.20;;;16.40;71.90;;;;;;5053797;28;20060;-73
2022/06/08 06:32:27;;;;;;;4.78;1.70;;;16.50;71.60;;;;;;5053812;28;20032;-77
2022/06/08 06:34:54;;;;;;;3.45;1.50;;;16.50;71.30;;;;;;5052660;28;20055;-77
2022/06/08 06:37:20;;;;;;;6.70;1.65;;;16.50;70.90;;;;;;5053082;28;20025;-77
2022/06/08 06:39:46;;;;;;;7.13;1.83;;;16.40;70.60;;;;;;5052529;28;20078;-77
2022/06/08 06:42:21;;;;;;;5.80;1.45;;;16.30;71.10;;;;;;5052456;28;20155;-77
2022/06/08 06:44:47;;;;;;;6.22;1.83;;;16.30;71.10;;;;;;5052389;28;20159;-77
2022/06/08 06:47:14;;;;;;;2.88;1.25;;;16.20;71.40;;;;;;5052645;28;20631;-77
2022/06/08 06:49:40;;;;;;;6.78;1.23;;;16.20;71.00;;;;;;5052050;28;20045;-78
2022/06/08 06:52:05;;;;;;;8.07;1.58;;;16.10;71.10;;;;;;5052157;28;20029;-77
2022/06/08 06:54:32;;;;;;;7.13;1.58;;;16.10;70.50;;;;;;5051892;28;20021;-77
2022/06/08 06:56:58;;;;;;;9.80;1.83;;;16.10;71.20;;;;;;5052269;28;20029;-77
2022/06/08 06:59:23;;;;;;;6.80;1.70;;;16.20;71.20;;;;;;5052287;28;20025;-77
2022/06/08 07:01:49;;;;;;;4.38;1.55;;;16.20;70.80;;;;;;5051828;28;20079;-78
2022/06/08 07:04:18;;;;;;;8.40;1.60;;;16.30;70.20;;;;;;5052272;28;20086;-77
2022/06/08 07:06:44;;;;;;;4.60;1.60;;;16.50;69.70;;;;;;5052121;28;20025;-77
2022/06/08 07:09:09;;;;;;;7.50;1.63;;;16.60;69.50;;;;;;5052063;28;20029;-78
2022/06/08 07:11:37;;;;;;;3.85;1.23;;;16.90;69.00;;;;;;5051709;28;20037;-78
2022/06/08 07:14:05;;;;;;;5.13;1.13;;;17.10;67.70;;;;;;5052504;28;20536;-78
2022/06/08 07:16:32;;;;;;;5.47;1.20;;;17.30;67.30;;;;;;5053010;28;20139;-78
2022/06/08 07:18:58;;;;;;;4.32;1.10;;;17.50;66.10;;;;;;5054025;28;20493;-76
2022/06/08 07:21:24;;;;;;;3.50;1.17;;;17.70;65.20;;;;;;5053763;28;20025;-76
2022/06/08 07:23:50;;;;;;;2.22;1.00;;;18.00;64.60;;;;;;5053196;28;20032;-76
2022/06/08 07:26:17;;;;;;;3.67;1.30;;;18.20;63.60;;;;;;5053198;28;20450;-76
2022/06/08 07:28:43;;;;;;;3.60;1.20;;;18.50;62.90;;;;;;5051768;28;20021;-76
2022/06/08 07:31:12;;;;;;;7.57;2.70;;;18.60;62.80;;;;;;5053640;28;20052;-76
2022/06/08 07:33:37;;;;;;;6.10;2.28;;;18.90;62.90;;;;;;5054494;28;20466;-76
2022/06/08 07:36:04;;;;;;;4.50;1.95;;;19.10;62.70;;;;;;5052170;28;20035;-77
2022/06/08 07:38:30;;;;;;;5.18;1.25;;;19.30;61.70;;;;;;5051808;28;20059;-77
2022/06/08 07:40:58;;;;;;;1.95;0.80;;;19.40;60.50;;;;;;5052217;28;20120;-76
2022/06/08 07:43:24;;;;;;;7.10;1.20;;;19.50;60.30;;;;;;5052200;28;20112;-77
2022/06/08 07:45:50;;;;;;;8.70;1.50;;;19.70;60.60;;;;;;5051983;28;20119;-76
2022/06/08 07:51:01;;;;;;;4.45;0.93;;;19.90;58.40;;;;;;5052684;28;20059;-78
2022/06/08 07:53:27;;;;;;;4.57;1.92;;;19.90;56.50;;;;;;5051591;28;20071;-77
2022/06/08 07:55:53;;;;;;;5.80;1.38;;;19.80;56.60;;;;;;5051466;28;20037;-77
2022/06/08 07:58:19;;;;;;;9.98;1.80;;;19.80;57.30;;;;;;5051708;28;20025;-77
2022/06/08 08:00:47;;;;;;;3.00;1.27;;;19.70;53.70;;;;;;5051656;28;20028;-77
2022/06/08 08:03:14;;;;;;;3.25;0.80;;;19.60;49.80;;;;;;5051654;28;20121;-77
2022/06/08 08:05:41;;;;;;;5.45;0.98;;;19.70;47.00;;;;;;5068199;28;20127;-77
2022/06/08 08:08:07;;;;;;;6.50;0.80;;;19.50;49.10;;;;;;5051584;28;20025;-77
2022/06/08 08:10:32;;;;;;;2.85;0.90;;;19.60;46.80;;;;;;5051565;28;20469;-77
2022/06/08 08:12:59;;;;;;;7.68;1.30;;;19.70;47.00;;;;;;5050935;28;20535;-78
2022/06/08 08:15:25;;;;;;;6.63;1.27;;;19.60;47.70;;;;;;5051325;28;20112;-77
2022/06/08 08:17:51;;;;;;;3.45;0.90;;;19.60;47.70;;;;;;5051205;28;20033;-77
2022/06/08 08:20:19;;;;;;;2.60;0.70;;;19.50;45.20;;;;;;5052611;28;20017;-77
2022/06/08 08:22:46;;;;;;;3.40;0.80;;;19.30;47.70;;;;;;5051263;28;20032;-76
2022/06/08 08:25:15;;;;;;;4.07;0.88;;;19.30;48.10;;;;;;5067581;28;20410;-76
2022/06/08 08:27:42;;;;;;;3.22;0.90;;;19.40;48.90;;;;;;5054752;28;20029;-76
2022/06/08 08:30:10;;;;;;;2.88;1.00;;;19.20;47.00;;;;;;5054815;28;20052;-76
2022/06/08 08:32:36;;;;;;;3.88;0.90;;;19.10;45.20;;;;;;5055285;28;20520;-77
2022/06/08 08:35:03;;;;;;;9.50;1.35;;;19.00;45.60;;;;;;5055184;28;20053;-76
2022/06/08 08:37:30;;;;;;;5.75;0.73;;;18.80;46.20;;;;;;5055764;28;20052;-76
2022/06/08 08:39:56;;;;;;;3.85;0.80;;;18.70;48.50;;;;;;5054530;28;20017;-76
2022/06/08 08:42:22;;;;;;;4.38;0.77;;;18.70;46.30;;;;;;5054705;28;20405;-77
2022/06/08 08:45:04;;;;;;;4.55;0.98;;;18.80;46.60;;;;;;5054679;28;20021;-77
2022/06/08 08:47:45;;;;;;;3.67;0.70;;;18.80;47.50;;;;;;5054481;28;20025;-77
2022/06/08 08:50:26;;;;;;;4.25;1.50;;;19.00;48.70;;;;;;5054986;28;20029;-77
2022/06/08 08:53:22;;;;;;;3.40;1.00;;;19.30;46.80;;;;;;5054614;28;20029;-76
2022/06/08 08:55:49;;;;;;;3.47;0.70;;;19.50;45.70;;;;;;5054610;28;20048;-77
2022/06/08 08:58:22;;;;;;;5.13;0.90;;;19.70;45.90;;;;;;5054470;28;20115;-77
2022/06/08 09:00:51;;;;;;;2.38;0.77;;;19.80;44.50;;;;;;5054630;28;20029;-77
2022/06/08 09:03:34;;;;;;;3.80;1.00;;;19.80;44.10;;;;;;5055591;28;20464;-77
2022/06/08 09:06:18;;;;;;;4.78;1.70;;;19.90;43.80;;;;;;5054346;28;20151;-77
2022/06/08 09:08:49;;;;;;;2.45;0.82;;;20.20;44.20;;;;;;5054113;28;20021;-77
2022/06/08 09:11:34;;;;;;;3.42;0.70;;;20.20;42.10;;;;;;5054227;28;20091;-77
2022/06/08 09:14:15;;;;;;;3.03;0.73;;;20.20;41.20;;;;;;5055235;28;20108;-77
2022/06/08 09:16:45;;;;;;;6.35;1.02;;;20.10;40.30;;;;;;5054343;28;20024;-77
2022/06/08 09:19:30;;;;;;;5.78;0.82;;;20.00;42.60;;;;;;5055243;28;20477;-77
2022/06/08 09:22:19;;;;;;;4.60;0.85;;;19.90;40.30;;;;;;5054263;28;20112;-77
2022/06/08 09:25:20;;;;;;;2.00;0.70;;;19.90;42.10;;;;;;5032015;28;20025;-77
2022/06/08 09:27:52;;;;;;;6.07;1.02;;;20.00;38.00;;;;;;5026945;28;20025;-78
2022/06/08 09:30:20;;;;;;;4.30;0.80;;;20.10;38.10;;;;;;5053872;28;20029;-78
2022/06/08 09:32:56;;;;;;;4.80;1.17;;;20.20;38.20;;;;;;5053728;28;20079;-77
2022/06/08 09:35:27;;;;;;;7.13;1.27;;;20.30;39.80;;;;;;5054233;28;20028;-77
2022/06/08 09:38:00;;;;;;;4.40;1.13;;;20.30;39.50;;;;;;5053760;28;20024;-79
2022/06/08 09:40:44;;;;;;;2.60;0.65;;;20.30;39.70;;;;;;5055259;28;20067;-78
2022/06/08 09:43:28;;;;;;;1.65;0.50;;;20.30;37.90;;;;;;5055180;28;20135;-78
2022/06/08 09:46:15;;;;;;;4.10;0.73;;;20.20;36.90;;;;;;5054854;28;20029;-77
2022/06/08 09:51:48;;;;;;;2.13;0.70;;;20.40;39.80;;;;;;5054492;28;20044;-79
2022/06/08 09:54:31;;;;;;;3.28;0.63;;;20.40;39.80;;;;;;5054907;28;20036;-77
2022/06/08 09:57:31;;;;;;;4.13;0.90;;;20.50;40.60;;;;;;5053791;28;20071;-77
2022/06/08 10:00:38;;;;;;;1.60;0.47;;;20.70;40.00;;;;;;5053018;28;20056;-77
2022/06/08 10:03:33;;;;;;;4.05;0.90;;;20.80;39.20;;;;;;5037314;28;20135;-77
2022/06/08 10:06:36;;;;;;;0.95;0.52;;;20.80;39.50;;;;;;5053303;28;20074;-78
2022/06/08 10:09:31;;;;;;;4.20;0.80;;;21.00;35.80;;;;;;5036336;28;20024;-77
2022/06/08 10:12:22;;;;;;;3.28;0.75;;;21.40;35.90;;;;;;5052650;28;20040;-78
2022/06/08 10:15:12;;;;;;;2.95;0.65;;;21.30;38.00;;;;;;5052887;28;20025;-77
2022/06/08 10:17:50;;;;;;;5.38;0.70;;;21.10;36.20;;;;;;5052714;28;20036;-77
2022/06/08 10:20:22;;;;;;;3.33;0.75;;;21.10;36.30;;;;;;5052457;28;20428;-77
2022/06/08 10:22:52;;;;;;;2.90;0.47;;;21.20;36.20;;;;;;5052501;28;20025;-77
2022/06/08 10:25:46;;;;;;;2.63;0.88;;;21.50;35.60;;;;;;5052274;28;20032;-77
2022/06/08 10:28:41;;;;;;;2.20;0.80;;;21.80;36.20;;;;;;5052631;28;20477;-77
2022/06/08 10:31:30;;;;;;;1.95;0.57;;;22.00;36.00;;;;;;5052278;28;20033;-77
2022/06/08 10:34:14;;;;;;;3.15;0.77;;;22.20;36.50;;;;;;5052432;28;20071;-78
2022/06/08 10:36:41;;;;;;;5.17;0.70;;;22.30;35.20;;;;;;5052851;28;20485;-77
2022/06/08 10:39:08;;;;;;;3.25;0.68;;;22.20;36.20;;;;;;5069597;28;20025;-77
2022/06/08 10:44:49;;;;;;;2.35;0.60;;;22.20;34.20;;;;;;5053805;28;20536;-76
2022/06/08 10:47:16;;;;;;;3.25;0.80;;;22.30;34.70;;;;;;5045861;28;20493;-75
2022/06/08 10:49:47;;;;;;;1.40;0.57;;;22.30;35.10;;;;;;5051116;28;20049;-76
2022/06/08 10:52:15;;;;;;;5.55;0.82;;;22.10;36.50;;;;;;5052267;28;20447;-76
2022/06/08 10:54:58;;;;;;;2.60;1.15;;;21.90;35.30;;;;;;5044368;28;20493;-76
2022/06/08 10:57:42;;;;;;;1.58;0.65;;;22.00;34.90;;;;;;5015546;28;20029;-77
2022/06/08 11:00:19;;;;;;;3.70;0.68;;;22.30;34.70;;;;;;5031564;28;20448;-78
2022/06/08 11:03:00;;;;;;;2.40;0.60;;;22.80;35.60;;;;;;5031770;28;20120;-77
2022/06/08 11:05:29;;;;;;;1.52;0.55;;;22.90;33.60;;;;;;5032256;28;20025;-77
2022/06/08 11:08:12;;;;;;;2.92;0.52;;;23.00;33.90;;;;;;5032253;28;20450;-77
2022/06/08 11:10:44;;;;;;;9.80;0.70;;;23.00;33.90;;;;;;5032529;28;20493;-78
2022/06/08 11:13:32;;;;;;;2.60;0.77;;;22.40;33.80;;;;;;5031643;28;20481;-77
2022/06/08 11:16:19;;;;;;;3.22;0.93;;;22.60;34.00;;;;;;5019932;28;20128;-78
2022/06/08 11:18:46;;;;;;;1.83;0.60;;;22.80;32.60;;;;;;5031437;28;20025;-78
2022/06/08 11:21:18;;;;;;;2.58;0.60;;;23.00;32.10;;;;;;5032323;28;20049;-78
2022/06/08 11:23:49;;;;;;;2.75;0.70;;;23.40;31.20;;;;;;5033902;28;20065;-78
2022/06/08 11:26:20;;;;;;;1.05;0.50;;;23.80;31.90;;;;;;5017011;28;20024;-77
2022/06/08 11:28:50;;;;;;;2.25;0.50;;;24.20;29.20;;;;;;5015920;28;20540;-77
2022/06/08 11:31:25;;;;;;;4.10;0.70;;;24.40;29.30;;;;;;5015636;28;20037;-78
2022/06/08 11:33:58;;;;;;;1.95;0.65;;;24.20;31.40;;;;;;5015329;28;20030;-77
2022/06/08 11:36:39;;;;;;;1.60;0.73;;;24.00;32.30;;;;;;5031669;28;20025;-78
2022/06/08 11:39:40;;;;;;;2.00;0.60;;;24.10;31.80;;;;;;5015555;28;20021;-77
2022/06/08 11:42:14;;;;;;;1.50;0.60;;;24.30;31.80;;;;;;5031851;28;20057;-79
2022/06/08 11:44:47;;;;;;;1.65;0.55;;;24.40;31.00;;;;;;5015449;28;20025;-79
2022/06/08 11:47:26;;;;;;;3.03;0.65;;;24.40;30.80;;;;;;5015518;28;20474;-77
2022/06/08 11:50:13;;;;;;;2.00;0.68;;;24.30;29.70;;;;;;5015086;28;20497;-79
2022/06/08 11:52:41;;;;;;;4.65;1.00;;;24.00;31.60;;;;;;5015540;28;20128;-77
2022/06/08 11:55:15;;;;;;;2.50;0.77;;;23.60;31.30;;;;;;5015324;28;20028;-79
2022/06/08 11:57:46;;;;;;;3.95;0.52;;;23.70;31.00;;;;;;5015118;28;20035;-78
2022/06/08 12:00:19;;;;;;;4.28;0.60;;;23.80;31.20;;;;;;5033007;28;20037;-78
2022/06/08 12:02:48;;;;;;;3.25;0.50;;;24.00;32.60;;;;;;5019238;28;20021;-78
2022/06/08 12:05:21;;;;;;;1.60;0.35;;;24.10;32.10;;;;;;5019165;28;20025;-78
2022/06/08 12:08:20;;;;;;;2.63;1.00;;;24.20;31.00;;;;;;5018901;28;20068;-77
2022/06/08 12:10:46;;;;;;;2.95;0.68;;;24.00;32.80;;;;;;5019672;28;20025;-77
2022/06/08 12:13:20;;;;;;;2.58;0.82;;;23.50;35.40;;;;;;5019155;28;20121;-77
2022/06/08 12:15:52;;;;;;;2.88;0.60;;;23.50;34.90;;;;;;5019087;28;20112;-78
2022/06/08 12:18:38;;;;;;;2.67;0.70;;;23.60;35.20;;;;;;5019374;28;20025;-78
2022/06/08 12:21:09;;;;;;;1.55;0.60;;;23.30;34.00;;;;;;5018716;28;20446;-78
2022/06/08 12:24:03;;;;;;;2.60;0.77;;;23.00;36.80;;;;;;5019103;28;20028;-78
2022/06/08 12:26:50;;;;;;;3.88;0.93;;;23.00;34.50;;;;;;5018353;28;20095;-78
2022/06/08 12:29:52;;;;;;;2.13;0.70;;;23.20;34.60;;;;;;5019080;28;20041;-78
2022/06/08 12:32:20;;;;;;;1.45;0.50;;;23.20;34.20;;;;;;5018356;28;20037;-78
2022/06/08 12:35:05;;;;;;;3.08;0.80;;;23.00;33.70;;;;;;5036085;28;20466;-78
2022/06/08 12:37:36;;;;;;;2.42;0.60;;;22.70;35.70;;;;;;5018551;28;20037;-78
2022/06/08 12:40:18;;;;;;;2.45;0.70;;;22.30;36.40;;;;;;5018729;28;20025;-77
2022/06/08 12:42:49;;;;;;;3.22;0.88;;;22.00;36.50;;;;;;5018399;28;20025;-77
2022/06/08 12:45:33;;;;;;;5.93;1.00;;;21.90;35.90;;;;;;5018426;28;20056;-79
2022/06/08 12:48:17;;;;;;;1.58;0.60;;;21.80;36.70;;;;;;5022045;28;20049;-78
2022/06/08 12:50:49;;;;;;;2.30;0.63;;;22.00;37.00;;;;;;5038241;28;20489;-78
2022/06/08 12:53:16;;;;;;;2.80;0.77;;;22.00;36.70;;;;;;5038420;28;20029;-77
2022/06/08 12:55:42;;;;;;;3.55;0.90;;;22.00;37.40;;;;;;5038433;28;20056;-78
2022/06/08 12:58:08;;;;;;;2.85;0.80;;;22.00;37.40;;;;;;5038238;28;20025;-78
2022/06/08 13:00:36;;;;;;;4.43;0.57;;;22.20;36.90;;;;;;5038273;28;20025;-78
2022/06/08 13:03:19;;;;;;;2.40;0.65;;;22.20;38.70;;;;;;5037825;28;20025;-78
2022/06/08 13:05:47;;;;;;;3.85;1.02;;;22.40;37.80;;;;;;5037698;28;20025;-78
2022/06/08 13:08:17;;;;;;;2.30;0.77;;;22.50;38.00;;;;;;5037402;28;20481;-78
2022/06/08 13:10:44;;;;;;;3.53;1.00;;;22.40;37.70;;;;;;5055326;28;20047;-78
2022/06/08 13:13:19;;;;;;;1.42;0.60;;;22.40;37.70;;;;;;5036518;28;20120;-77
2022/06/08 13:15:56;;;;;;;2.40;0.80;;;22.30;38.20;;;;;;5037265;28;20104;-78
2022/06/08 13:18:24;;;;;;;1.77;0.88;;;22.30;38.10;;;;;;5037492;28;20032;-78
2022/06/08 13:20:55;;;;;;;2.17;0.75;;;22.30;38.20;;;;;;5037731;28;20033;-78
2022/06/08 13:23:21;;;;;;;3.10;0.90;;;22.20;38.10;;;;;;5028572;28;20212;-77
2022/06/08 13:25:48;;;;;;;3.67;1.00;;;22.30;37.60;;;;;;5037870;28;20056;-78